Accueil
METAR-TAF:

METAR-TAF

Aéroports :

Aéroport de Rouyn-Noranda

Rouyn-Noranda, Québec, Canada

latitude: 48-12N, longitude: 078-50W, altitude: 301 m

Observation

Le bulletin a été fait il y a 21 minutes, à 03:00 UTC
Vent calme
Température 10°C
Humidité 87%
Pression 1018 hPa
Visibilité: 24.1 km
Ciel clair

METAR: CYUY 190300Z 00000KT 15SM SKC 10/08 A3005 RMK SLP182

Heure: 23:21 (03:21 UTC)

Prévision

Le bulletin a été fait il y a 3 heures et 43 minutes, à 23:38 UTC
Prévision valable du 19 à 00 UTC au 19 à 12 UTC
Vent 3 kt de direction variable
Visibilité: 10 km
Quelques nuages à une hauteur de 10000 ft
Quelques nuages à une hauteur de 26000 ft

TAF: CYUY 182338Z 1900/1912 VRB03KT P6SM FEW100 FEW260 RMK NXT FCST BY 190600Z

Observations et prévisions météorologiques de plus de 4000 aéroports (messages METAR et TAF).

Les stations disponibles sont représentées par des disques jaunes et rouges sur la carte.

Passer la souris dessus pour voir le nom de la station.

Cliquer dessus pour voir les observations et prévisions météorologiques.

Pour changer de carte: cliquez sur les boutons verts avec une croix noire pour zoomer, sur le bouton vert avec un tiret pour effectuer un zoom arrière, ou sur les flèches vertes pour les cartes adjacentes.


METAR-TAF: